sensor_id;sensor_type;location;lat;lon;timestamp;temperature;humidity
59847;DHT22;45728;48.788;2.302;2022-07-03T00:01:17;18.50;96.70
59847;DHT22;45728;48.788;2.302;2022-07-03T00:03:43;18.50;96.60
59847;DHT22;45728;48.788;2.302;2022-07-03T00:06:09;18.40;96.70
59847;DHT22;45728;48.788;2.302;2022-07-03T00:08:36;18.40;96.60
59847;DHT22;45728;48.788;2.302;2022-07-03T00:11:03;18.30;96.70
59847;DHT22;45728;48.788;2.302;2022-07-03T00:13:30;18.40;96.70
59847;DHT22;45728;48.788;2.302;2022-07-03T00:15:56;18.40;96.80
59847;DHT22;45728;48.788;2.302;2022-07-03T00:18:22;18.30;96.70
59847;DHT22;45728;48.788;2.302;2022-07-03T00:20:51;18.30;96.80
59847;DHT22;45728;48.788;2.302;2022-07-03T00:23:21;18.30;96.80
59847;DHT22;45728;48.788;2.302;2022-07-03T00:25:49;18.20;96.80
59847;DHT22;45728;48.788;2.302;2022-07-03T00:28:19;18.30;96.80
59847;DHT22;45728;48.788;2.302;2022-07-03T00:30:48;18.20;96.70
59847;DHT22;45728;48.788;2.302;2022-07-03T00:33:15;18.20;96.80
59847;DHT22;45728;48.788;2.302;2022-07-03T00:35:42;18.10;96.80
59847;DHT22;45728;48.788;2.302;2022-07-03T00:38:12;18.10;96.70
59847;DHT22;45728;48.788;2.302;2022-07-03T00:40:38;18.10;96.80
59847;DHT22;45728;48.788;2.302;2022-07-03T00:43:04;18.10;96.80
59847;DHT22;45728;48.788;2.302;2022-07-03T00:45:34;18.10;96.90
59847;DHT22;45728;48.788;2.302;2022-07-03T00:48:02;18.10;96.80
59847;DHT22;45728;48.788;2.302;2022-07-03T00:50:34;18.10;96.80
59847;DHT22;45728;48.788;2.302;2022-07-03T00:53:02;18.20;96.90
59847;DHT22;45728;48.788;2.302;2022-07-03T00:55:28;18.20;96.80
59847;DHT22;45728;48.788;2.302;2022-07-03T00:57:56;18.10;96.90
59847;DHT22;45728;48.788;2.302;2022-07-03T01:00:23;18.10;96.90
59847;DHT22;45728;48.788;2.302;2022-07-03T01:03:06;18.10;97.00
59847;DHT22;45728;48.788;2.302;2022-07-03T01:05:43;18.00;97.10
59847;DHT22;45728;48.788;2.302;2022-07-03T01:19:46;18.00;97.60
59847;DHT22;45728;48.788;2.302;2022-07-03T01:25:12;17.90;97.80
59847;DHT22;45728;48.788;2.302;2022-07-03T01:30:34;17.90;97.90
59847;DHT22;45728;48.788;2.302;2022-07-03T01:35:35;17.80;98.20
59847;DHT22;45728;48.788;2.302;2022-07-03T01:38:07;17.80;98.20
59847;DHT22;45728;48.788;2.302;2022-07-03T01:40:36;17.90;98.40
59847;DHT22;45728;48.788;2.302;2022-07-03T01:43:04;17.90;98.30
59847;DHT22;45728;48.788;2.302;2022-07-03T01:45:32;17.90;98.30
59847;DHT22;45728;48.788;2.302;2022-07-03T01:48:01;17.80;98.40
59847;DHT22;45728;48.788;2.302;2022-07-03T01:50:28;17.80;98.40
59847;DHT22;45728;48.788;2.302;2022-07-03T01:52:56;17.70;98.60
59847;DHT22;45728;48.788;2.302;2022-07-03T01:55:31;17.70;98.60
59847;DHT22;45728;48.788;2.302;2022-07-03T01:57:58;17.70;98.60
59847;DHT22;45728;48.788;2.302;2022-07-03T02:00:25;17.70;98.70
59847;DHT22;45728;48.788;2.302;2022-07-03T02:02:58;17.60;98.60
59847;DHT22;45728;48.788;2.302;2022-07-03T02:08:26;17.60;98.90
59847;DHT22;45728;48.788;2.302;2022-07-03T02:13:51;17.50;99.00
59847;DHT22;45728;48.788;2.302;2022-07-03T02:16:20;17.50;99.00
59847;DHT22;45728;48.788;2.302;2022-07-03T02:18:57;17.50;99.00
59847;DHT22;45728;48.788;2.302;2022-07-03T02:21:28;17.40;99.10
59847;DHT22;45728;48.788;2.302;2022-07-03T02:26:39;17.30;99.20
59847;DHT22;45728;48.788;2.302;2022-07-03T02:29:07;17.30;99.20
59847;DHT22;45728;48.788;2.302;2022-07-03T02:31:42;17.30;99.30
59847;DHT22;45728;48.788;2.302;2022-07-03T02:34:14;17.30;99.20
59847;DHT22;45728;48.788;2.302;2022-07-03T02:36:45;17.20;99.40
59847;DHT22;45728;48.788;2.302;2022-07-03T02:39:19;17.20;99.60
59847;DHT22;45728;48.788;2.302;2022-07-03T02:41:59;17.10;99.80
59847;DHT22;45728;48.788;2.302;2022-07-03T02:44:41;17.10;99.90
59847;DHT22;45728;48.788;2.302;2022-07-03T02:47:14;17.00;99.90
59847;DHT22;45728;48.788;2.302;2022-07-03T02:55:08;17.00;99.90
59847;DHT22;45728;48.788;2.302;2022-07-03T02:57:40;16.90;99.90
59847;DHT22;45728;48.788;2.302;2022-07-03T03:00:08;16.90;99.90
59847;DHT22;45728;48.788;2.302;2022-07-03T03:10:37;16.70;99.90
59847;DHT22;45728;48.788;2.302;2022-07-03T03:13:12;16.60;99.90
59847;DHT22;45728;48.788;2.302;2022-07-03T03:15:41;16.60;99.90
59847;DHT22;45728;48.788;2.302;2022-07-03T03:18:12;16.60;99.90
59847;DHT22;45728;48.788;2.302;2022-07-03T03:20:46;16.60;99.90
59847;DHT22;45728;48.788;2.302;2022-07-03T03:23:19;16.50;99.90
59847;DHT22;45728;48.788;2.302;2022-07-03T03:25:47;16.40;99.90
59847;DHT22;45728;48.788;2.302;2022-07-03T03:28:14;16.50;99.90
59847;DHT22;45728;48.788;2.302;2022-07-03T03:30:40;16.50;99.90
59847;DHT22;45728;48.788;2.302;2022-07-03T03:33:07;16.40;99.90
59847;DHT22;45728;48.788;2.302;2022-07-03T03:35:36;16.40;99.90
59847;DHT22;45728;48.788;2.302;2022-07-03T03:38:03;16.40;99.90
59847;DHT22;45728;48.788;2.302;2022-07-03T03:40:31;16.40;99.90
59847;DHT22;45728;48.788;2.302;2022-07-03T03:42:57;16.30;99.90
59847;DHT22;45728;48.788;2.302;2022-07-03T03:45:23;16.20;99.90
59847;DHT22;45728;48.788;2.302;2022-07-03T03:47:50;16.20;99.90
59847;DHT22;45728;48.788;2.302;2022-07-03T03:50:16;16.20;99.90
59847;DHT22;45728;48.788;2.302;2022-07-03T03:52:42;16.30;99.90
59847;DHT22;45728;48.788;2.302;2022-07-03T03:55:08;16.30;99.90
59847;DHT22;45728;48.788;2.302;2022-07-03T03:57:37;16.30;99.90
59847;DHT22;45728;48.788;2.302;2022-07-03T04:00:05;16.30;99.90
59847;DHT22;45728;48.788;2.302;2022-07-03T04:02:31;16.30;99.90
59847;DHT22;45728;48.788;2.302;2022-07-03T04:04:58;16.30;99.90
59847;DHT22;45728;48.788;2.302;2022-07-03T04:07:24;16.30;99.90
59847;DHT22;45728;48.788;2.302;2022-07-03T04:09:50;16.20;99.90
59847;DHT22;45728;48.788;2.302;2022-07-03T04:12:16;16.10;99.90
59847;DHT22;45728;48.788;2.302;2022-07-03T04:14:42;16.10;99.90
59847;DHT22;45728;48.788;2.302;2022-07-03T04:17:08;16.10;99.90
59847;DHT22;45728;48.788;2.302;2022-07-03T04:19:34;16.00;99.90
59847;DHT22;45728;48.788;2.302;2022-07-03T04:22:01;16.10;99.90
59847;DHT22;45728;48.788;2.302;2022-07-03T04:24:27;16.20;99.90
59847;DHT22;45728;48.788;2.302;2022-07-03T04:26:53;16.20;99.90
59847;DHT22;45728;48.788;2.302;2022-07-03T04:29:19;16.10;99.90
59847;DHT22;45728;48.788;2.302;2022-07-03T04:31:45;16.10;99.90
59847;DHT22;45728;48.788;2.302;2022-07-03T04:34:11;16.10;99.90
59847;DHT22;45728;48.788;2.302;2022-07-03T04:36:38;16.00;99.90
59847;DHT22;45728;48.788;2.302;2022-07-03T04:39:04;15.90;99.90
59847;DHT22;45728;48.788;2.302;2022-07-03T04:41:30;16.00;99.90
59847;DHT22;45728;48.788;2.302;2022-07-03T04:43:56;16.00;99.90
59847;DHT22;45728;48.788;2.302;2022-07-03T04:46:23;16.00;99.90
59847;DHT22;45728;48.788;2.302;2022-07-03T04:48:49;16.00;99.90
59847;DHT22;45728;48.788;2.302;2022-07-03T04:51:15;16.10;99.90
59847;DHT22;45728;48.788;2.302;2022-07-03T04:53:41;16.20;99.90
59847;DHT22;45728;48.788;2.302;2022-07-03T04:56:07;16.10;99.90
59847;DHT22;45728;48.788;2.302;2022-07-03T04:58:33;16.10;99.90
59847;DHT22;45728;48.788;2.302;2022-07-03T05:00:59;16.10;99.90
59847;DHT22;45728;48.788;2.302;2022-07-03T05:03:25;16.10;99.90
59847;DHT22;45728;48.788;2.302;2022-07-03T05:05:51;16.10;99.90
59847;DHT22;45728;48.788;2.302;2022-07-03T05:08:18;16.20;99.90
59847;DHT22;45728;48.788;2.302;2022-07-03T05:10:46;16.20;99.90
59847;DHT22;45728;48.788;2.302;2022-07-03T05:13:12;16.20;99.90
59847;DHT22;45728;48.788;2.302;2022-07-03T05:15:38;16.30;99.90
59847;DHT22;45728;48.788;2.302;2022-07-03T05:18:04;16.20;99.90
59847;DHT22;45728;48.788;2.302;2022-07-03T05:20:30;16.20;99.90
59847;DHT22;45728;48.788;2.302;2022-07-03T05:23:01;16.20;99.90
59847;DHT22;45728;48.788;2.302;2022-07-03T05:25:29;16.20;99.90
59847;DHT22;45728;48.788;2.302;2022-07-03T05:27:57;16.20;99.90
59847;DHT22;45728;48.788;2.302;2022-07-03T05:30:24;16.20;99.90
59847;DHT22;45728;48.788;2.302;2022-07-03T05:32:51;16.30;99.90
59847;DHT22;45728;48.788;2.302;2022-07-03T05:35:17;16.30;99.90
59847;DHT22;45728;48.788;2.302;2022-07-03T05:37:44;16.30;99.90
59847;DHT22;45728;48.788;2.302;2022-07-03T05:40:10;16.40;99.90
59847;DHT22;45728;48.788;2.302;2022-07-03T05:42:36;16.40;99.90
59847;DHT22;45728;48.788;2.302;2022-07-03T05:45:03;16.40;99.90
59847;DHT22;45728;48.788;2.302;2022-07-03T05:47:29;16.40;99.90
59847;DHT22;45728;48.788;2.302;2022-07-03T05:49:55;16.40;99.90
59847;DHT22;45728;48.788;2.302;2022-07-03T05:52:21;16.60;99.90
59847;DHT22;45728;48.788;2.302;2022-07-03T05:54:48;16.80;99.90
59847;DHT22;45728;48.788;2.302;2022-07-03T05:57:14;17.10;99.90
59847;DHT22;45728;48.788;2.302;2022-07-03T05:59:41;17.40;99.90
59847;DHT22;45728;48.788;2.302;2022-07-03T06:02:07;17.80;99.90
59847;DHT22;45728;48.788;2.302;2022-07-03T06:04:33;18.10;99.90
59847;DHT22;45728;48.788;2.302;2022-07-03T06:06:59;18.40;99.90
59847;DHT22;45728;48.788;2.302;2022-07-03T06:09:25;18.70;99.90
59847;DHT22;45728;48.788;2.302;2022-07-03T06:11:51;18.80;99.90
59847;DHT22;45728;48.788;2.302;2022-07-03T06:14:17;19.10;99.90
59847;DHT22;45728;48.788;2.302;2022-07-03T06:16:43;19.10;99.90
59847;DHT22;45728;48.788;2.302;2022-07-03T06:19:09;19.10;99.90
59847;DHT22;45728;48.788;2.302;2022-07-03T06:21:36;19.10;99.90
59847;DHT22;45728;48.788;2.302;2022-07-03T06:24:02;19.40;99.90
59847;DHT22;45728;48.788;2.302;2022-07-03T06:26:28;19.20;99.90
59847;DHT22;45728;48.788;2.302;2022-07-03T06:28:55;19.10;99.90
59847;DHT22;45728;48.788;2.302;2022-07-03T06:31:21;19.30;99.90
59847;DHT22;45728;48.788;2.302;2022-07-03T06:33:47;19.70;99.90
59847;DHT22;45728;48.788;2.302;2022-07-03T06:36:13;20.00;99.90
59847;DHT22;45728;48.788;2.302;2022-07-03T06:38:39;20.70;99.90
59847;DHT22;45728;48.788;2.302;2022-07-03T06:41:05;20.10;99.90
59847;DHT22;45728;48.788;2.302;2022-07-03T06:43:31;19.90;99.90
59847;DHT22;45728;48.788;2.302;2022-07-03T06:45:57;20.00;99.90
59847;DHT22;45728;48.788;2.302;2022-07-03T06:48:23;20.30;99.90
59847;DHT22;45728;48.788;2.302;2022-07-03T06:50:50;20.10;99.90
59847;DHT22;45728;48.788;2.302;2022-07-03T06:53:16;19.60;99.90
59847;DHT22;45728;48.788;2.302;2022-07-03T06:55:42;19.60;99.90
59847;DHT22;45728;48.788;2.302;2022-07-03T06:58:08;19.40;99.90
59847;DHT22;45728;48.788;2.302;2022-07-03T07:00:34;19.20;99.90
59847;DHT22;45728;48.788;2.302;2022-07-03T07:03:02;19.40;99.90
59847;DHT22;45728;48.788;2.302;2022-07-03T07:05:28;19.70;99.90
59847;DHT22;45728;48.788;2.302;2022-07-03T07:07:54;19.80;99.90
59847;DHT22;45728;48.788;2.302;2022-07-03T07:10:20;19.90;99.90
59847;DHT22;45728;48.788;2.302;2022-07-03T07:12:46;20.30;99.90
59847;DHT22;45728;48.788;2.302;2022-07-03T07:15:12;20.50;99.90
59847;DHT22;45728;48.788;2.302;2022-07-03T07:17:39;20.30;99.90
59847;DHT22;45728;48.788;2.302;2022-07-03T07:20:05;20.20;99.90
59847;DHT22;45728;48.788;2.302;2022-07-03T07:22:31;20.00;99.90
59847;DHT22;45728;48.788;2.302;2022-07-03T07:24:58;19.90;99.90
59847;DHT22;45728;48.788;2.302;2022-07-03T07:27:24;19.90;99.90
59847;DHT22;45728;48.788;2.302;2022-07-03T07:29:50;19.80;99.90
59847;DHT22;45728;48.788;2.302;2022-07-03T07:32:16;19.70;99.90
59847;DHT22;45728;48.788;2.302;2022-07-03T07:34:42;19.70;99.90
59847;DHT22;45728;48.788;2.302;2022-07-03T07:37:08;19.70;99.90
59847;DHT22;45728;48.788;2.302;2022-07-03T07:39:34;19.70;99.90
59847;DHT22;45728;48.788;2.302;2022-07-03T07:42:00;19.60;99.90
59847;DHT22;45728;48.788;2.302;2022-07-03T07:44:26;19.50;99.90
59847;DHT22;45728;48.788;2.302;2022-07-03T07:46:52;19.40;99.90
59847;DHT22;45728;48.788;2.302;2022-07-03T07:49:18;19.40;99.90
59847;DHT22;45728;48.788;2.302;2022-07-03T07:51:44;19.40;99.90
59847;DHT22;45728;48.788;2.302;2022-07-03T07:54:10;19.70;99.90
59847;DHT22;45728;48.788;2.302;2022-07-03T07:56:37;19.70;99.90
59847;DHT22;45728;48.788;2.302;2022-07-03T07:59:03;19.60;99.90
59847;DHT22;45728;48.788;2.302;2022-07-03T08:01:29;19.60;99.90
59847;DHT22;45728;48.788;2.302;2022-07-03T08:04:14;19.70;99.90
59847;DHT22;45728;48.788;2.302;2022-07-03T08:06:58;19.80;99.90
59847;DHT22;45728;48.788;2.302;2022-07-03T08:09:24;19.90;99.90
59847;DHT22;45728;48.788;2.302;2022-07-03T08:11:50;20.00;99.90
59847;DHT22;45728;48.788;2.302;2022-07-03T08:14:16;19.80;99.90
59847;DHT22;45728;48.788;2.302;2022-07-03T08:16:42;19.70;99.90
59847;DHT22;45728;48.788;2.302;2022-07-03T08:19:10;19.80;99.90
59847;DHT22;45728;48.788;2.302;2022-07-03T08:21:37;20.00;99.90
59847;DHT22;45728;48.788;2.302;2022-07-03T08:24:03;20.00;99.90
59847;DHT22;45728;48.788;2.302;2022-07-03T08:26:29;20.00;99.90
59847;DHT22;45728;48.788;2.302;2022-07-03T08:28:55;19.90;99.90
59847;DHT22;45728;48.788;2.302;2022-07-03T08:31:21;20.20;99.90
59847;DHT22;45728;48.788;2.302;2022-07-03T08:33:47;20.20;99.80
59847;DHT22;45728;48.788;2.302;2022-07-03T08:36:13;20.20;99.90
59847;DHT22;45728;48.788;2.302;2022-07-03T08:38:39;20.40;99.80
59847;DHT22;45728;48.788;2.302;2022-07-03T08:41:06;20.40;99.90
59847;DHT22;45728;48.788;2.302;2022-07-03T08:43:33;20.40;99.90
59847;DHT22;45728;48.788;2.302;2022-07-03T08:46:00;20.20;99.90
59847;DHT22;45728;48.788;2.302;2022-07-03T08:48:27;20.30;99.90
59847;DHT22;45728;48.788;2.302;2022-07-03T08:50:54;20.70;99.00
59847;DHT22;45728;48.788;2.302;2022-07-03T08:53:21;20.40;99.00
59847;DHT22;45728;48.788;2.302;2022-07-03T08:55:48;20.40;99.20
59847;DHT22;45728;48.788;2.302;2022-07-03T08:58:14;20.40;99.20
59847;DHT22;45728;48.788;2.302;2022-07-03T09:00:44;20.40;99.30
59847;DHT22;45728;48.788;2.302;2022-07-03T09:03:11;20.60;99.30
59847;DHT22;45728;48.788;2.302;2022-07-03T09:05:38;20.80;99.10
59847;DHT22;45728;48.788;2.302;2022-07-03T09:08:08;20.70;99.10
59847;DHT22;45728;48.788;2.302;2022-07-03T09:10:35;20.80;99.50
59847;DHT22;45728;48.788;2.302;2022-07-03T09:13:01;20.70;99.10
59847;DHT22;45728;48.788;2.302;2022-07-03T09:15:28;20.90;98.90
59847;DHT22;45728;48.788;2.302;2022-07-03T09:18:04;20.80;99.00
59847;DHT22;45728;48.788;2.302;2022-07-03T09:20:33;20.80;98.80
59847;DHT22;45728;48.788;2.302;2022-07-03T09:23:19;20.80;99.10
59847;DHT22;45728;48.788;2.302;2022-07-03T09:25:59;21.20;98.30
59847;DHT22;45728;48.788;2.302;2022-07-03T09:28:49;21.40;98.30
59847;DHT22;45728;48.788;2.302;2022-07-03T09:31:25;21.20;98.30
59847;DHT22;45728;48.788;2.302;2022-07-03T09:34:00;21.10;98.50
59847;DHT22;45728;48.788;2.302;2022-07-03T09:36:52;21.40;98.50
59847;DHT22;45728;48.788;2.302;2022-07-03T09:39:29;22.00;97.90
59847;DHT22;45728;48.788;2.302;2022-07-03T09:42:07;22.00;98.20
59847;DHT22;45728;48.788;2.302;2022-07-03T09:44:40;22.10;97.60
59847;DHT22;45728;48.788;2.302;2022-07-03T09:47:22;21.60;97.80
59847;DHT22;45728;48.788;2.302;2022-07-03T09:50:01;21.50;98.00
59847;DHT22;45728;48.788;2.302;2022-07-03T09:57:56;21.00;98.60
59847;DHT22;45728;48.788;2.302;2022-07-03T10:00:24;20.90;98.90
59847;DHT22;45728;48.788;2.302;2022-07-03T10:02:56;20.70;99.20
59847;DHT22;45728;48.788;2.302;2022-07-03T10:05:25;20.80;99.20
59847;DHT22;45728;48.788;2.302;2022-07-03T10:07:53;21.00;98.80
59847;DHT22;45728;48.788;2.302;2022-07-03T10:10:20;21.10;99.00
59847;DHT22;45728;48.788;2.302;2022-07-03T10:12:49;21.30;98.90
59847;DHT22;45728;48.788;2.302;2022-07-03T10:15:17;21.40;98.70
59847;DHT22;45728;48.788;2.302;2022-07-03T10:17:47;21.50;98.60
59847;DHT22;45728;48.788;2.302;2022-07-03T10:20:14;21.50;98.40
59847;DHT22;45728;48.788;2.302;2022-07-03T10:22:45;21.60;98.70
59847;DHT22;45728;48.788;2.302;2022-07-03T10:25:13;21.20;98.60
59847;DHT22;45728;48.788;2.302;2022-07-03T10:27:40;21.10;98.90
59847;DHT22;45728;48.788;2.302;2022-07-03T10:30:07;21.20;98.90
59847;DHT22;45728;48.788;2.302;2022-07-03T10:32:34;21.40;98.50
59847;DHT22;45728;48.788;2.302;2022-07-03T10:35:02;21.40;98.50
59847;DHT22;45728;48.788;2.302;2022-07-03T10:37:43;22.10;98.10
59847;DHT22;45728;48.788;2.302;2022-07-03T10:41:01;22.00;97.70
59847;DHT22;45728;48.788;2.302;2022-07-03T10:43:30;21.90;98.20
59847;DHT22;45728;48.788;2.302;2022-07-03T10:46:17;21.90;98.20
59847;DHT22;45728;48.788;2.302;2022-07-03T10:54:21;23.00;97.70
59847;DHT22;45728;48.788;2.302;2022-07-03T11:07:27;24.00;96.20
59847;DHT22;45728;48.788;2.302;2022-07-03T11:15:38;22.90;96.20
59847;DHT22;45728;48.788;2.302;2022-07-03T11:18:26;22.20;97.20
59847;DHT22;45728;48.788;2.302;2022-07-03T11:25:59;23.60;95.90
59847;DHT22;45728;48.788;2.302;2022-07-03T11:41:51;23.90;94.60
59847;DHT22;45728;48.788;2.302;2022-07-03T11:44:19;23.70;94.40
59847;DHT22;45728;48.788;2.302;2022-07-03T11:46:50;23.40;94.50
59847;DHT22;45728;48.788;2.302;2022-07-03T11:49:22;23.60;94.90
59847;DHT22;45728;48.788;2.302;2022-07-03T11:51:59;24.40;94.40
59847;DHT22;45728;48.788;2.302;2022-07-03T11:54:29;24.80;93.30
59847;DHT22;45728;48.788;2.302;2022-07-03T11:56:56;25.00;93.20
59847;DHT22;45728;48.788;2.302;2022-07-03T11:59:22;24.90;92.10
59847;DHT22;45728;48.788;2.302;2022-07-03T12:01:48;24.70;92.60
59847;DHT22;45728;48.788;2.302;2022-07-03T12:04:21;24.80;92.60
59847;DHT22;45728;48.788;2.302;2022-07-03T12:06:56;24.90;92.30
59847;DHT22;45728;48.788;2.302;2022-07-03T12:09:27;24.80;92.40
59847;DHT22;45728;48.788;2.302;2022-07-03T12:12:09;24.30;93.20
59847;DHT22;45728;48.788;2.302;2022-07-03T12:14:56;23.90;92.60
59847;DHT22;45728;48.788;2.302;2022-07-03T12:17:24;23.80;93.70
59847;DHT22;45728;48.788;2.302;2022-07-03T12:19:55;24.50;92.80
59847;DHT22;45728;48.788;2.302;2022-07-03T12:25:12;25.50;91.70
59847;DHT22;45728;48.788;2.302;2022-07-03T12:27:40;24.70;91.10
59847;DHT22;45728;48.788;2.302;2022-07-03T12:30:08;24.10;92.20
59847;DHT22;45728;48.788;2.302;2022-07-03T12:32:36;24.10;91.70
59847;DHT22;45728;48.788;2.302;2022-07-03T12:35:02;23.70;91.90
59847;DHT22;45728;48.788;2.302;2022-07-03T12:37:41;23.80;92.20
59847;DHT22;45728;48.788;2.302;2022-07-03T12:40:11;23.90;92.10
59847;DHT22;45728;48.788;2.302;2022-07-03T12:42:53;24.10;91.80
59847;DHT22;45728;48.788;2.302;2022-07-03T12:48:04;24.00;92.50
59847;DHT22;45728;48.788;2.302;2022-07-03T12:50:44;24.30;91.50
59847;DHT22;45728;48.788;2.302;2022-07-03T12:53:10;24.70;91.80
59847;DHT22;45728;48.788;2.302;2022-07-03T12:55:44;24.60;91.00
59847;DHT22;45728;48.788;2.302;2022-07-03T12:58:15;24.70;91.30
59847;DHT22;45728;48.788;2.302;2022-07-03T13:01:00;24.90;90.90
59847;DHT22;45728;48.788;2.302;2022-07-03T13:03:29;24.90;90.50
59847;DHT22;45728;48.788;2.302;2022-07-03T13:05:56;24.50;91.20
59847;DHT22;45728;48.788;2.302;2022-07-03T13:08:22;24.40;90.80
59847;DHT22;45728;48.788;2.302;2022-07-03T13:10:58;24.60;91.00
59847;DHT22;45728;48.788;2.302;2022-07-03T13:13:25;24.50;90.80
59847;DHT22;45728;48.788;2.302;2022-07-03T13:15:51;24.40;90.80
59847;DHT22;45728;48.788;2.302;2022-07-03T13:18:18;24.50;90.90
59847;DHT22;45728;48.788;2.302;2022-07-03T13:20:44;24.90;90.50
59847;DHT22;45728;48.788;2.302;2022-07-03T13:23:10;24.60;90.10
59847;DHT22;45728;48.788;2.302;2022-07-03T13:25:38;24.40;90.10
59847;DHT22;45728;48.788;2.302;2022-07-03T13:28:12;24.20;90.40
59847;DHT22;45728;48.788;2.302;2022-07-03T13:30:40;24.20;90.00
59847;DHT22;45728;48.788;2.302;2022-07-03T13:33:07;24.40;90.30
59847;DHT22;45728;48.788;2.302;2022-07-03T13:35:34;24.50;90.50
59847;DHT22;45728;48.788;2.302;2022-07-03T13:38:01;24.90;90.00
59847;DHT22;45728;48.788;2.302;2022-07-03T13:40:28;24.80;89.70
59847;DHT22;45728;48.788;2.302;2022-07-03T13:42:54;24.90;88.60
59847;DHT22;45728;48.788;2.302;2022-07-03T13:45:20;25.40;88.90
59847;DHT22;45728;48.788;2.302;2022-07-03T13:47:46;25.40;89.60
59847;DHT22;45728;48.788;2.302;2022-07-03T13:50:14;25.70;89.00
59847;DHT22;45728;48.788;2.302;2022-07-03T13:52:40;25.70;86.40
59847;DHT22;45728;48.788;2.302;2022-07-03T13:55:06;25.50;86.10
59847;DHT22;45728;48.788;2.302;2022-07-03T13:57:32;25.40;86.90
59847;DHT22;45728;48.788;2.302;2022-07-03T13:59:59;25.00;88.00
59847;DHT22;45728;48.788;2.302;2022-07-03T14:02:25;24.80;88.30
59847;DHT22;45728;48.788;2.302;2022-07-03T14:04:51;25.00;88.00
59847;DHT22;45728;48.788;2.302;2022-07-03T14:07:17;25.60;87.40
59847;DHT22;45728;48.788;2.302;2022-07-03T14:09:43;25.70;86.70
59847;DHT22;45728;48.788;2.302;2022-07-03T14:12:10;25.80;86.80
59847;DHT22;45728;48.788;2.302;2022-07-03T14:14:36;25.90;86.40
59847;DHT22;45728;48.788;2.302;2022-07-03T14:17:02;25.70;86.40
59847;DHT22;45728;48.788;2.302;2022-07-03T14:19:28;25.90;84.90
59847;DHT22;45728;48.788;2.302;2022-07-03T14:21:54;25.80;86.30
59847;DHT22;45728;48.788;2.302;2022-07-03T14:24:20;25.90;86.00
59847;DHT22;45728;48.788;2.302;2022-07-03T14:26:46;25.90;85.50
59847;DHT22;45728;48.788;2.302;2022-07-03T14:29:30;26.00;85.60
59847;DHT22;45728;48.788;2.302;2022-07-03T14:32:15;25.80;84.70
59847;DHT22;45728;48.788;2.302;2022-07-03T14:34:58;25.60;85.40
59847;DHT22;45728;48.788;2.302;2022-07-03T14:37:25;25.50;86.60
59847;DHT22;45728;48.788;2.302;2022-07-03T14:39:51;25.90;86.50
59847;DHT22;45728;48.788;2.302;2022-07-03T14:42:18;25.80;84.60
59847;DHT22;45728;48.788;2.302;2022-07-03T14:44:44;25.40;85.90
59847;DHT22;45728;48.788;2.302;2022-07-03T14:47:11;25.70;85.60
59847;DHT22;45728;48.788;2.302;2022-07-03T14:49:37;25.10;85.00
59847;DHT22;45728;48.788;2.302;2022-07-03T14:52:05;24.50;86.90
59847;DHT22;45728;48.788;2.302;2022-07-03T14:54:31;24.60;85.80
59847;DHT22;45728;48.788;2.302;2022-07-03T14:57:00;24.50;86.40
59847;DHT22;45728;48.788;2.302;2022-07-03T15:02:19;24.80;85.80
59847;DHT22;45728;48.788;2.302;2022-07-03T15:07:39;25.10;84.00
59847;DHT22;45728;48.788;2.302;2022-07-03T15:10:09;25.30;83.80
59847;DHT22;45728;48.788;2.302;2022-07-03T15:12:41;25.30;83.50
59847;DHT22;45728;48.788;2.302;2022-07-03T15:15:09;24.80;83.60
59847;DHT22;45728;48.788;2.302;2022-07-03T15:17:36;24.80;84.20
59847;DHT22;45728;48.788;2.302;2022-07-03T15:20:03;25.50;83.90
59847;DHT22;45728;48.788;2.302;2022-07-03T15:22:31;25.40;81.90
59847;DHT22;45728;48.788;2.302;2022-07-03T15:24:58;25.40;82.90
59847;DHT22;45728;48.788;2.302;2022-07-03T15:27:27;25.80;82.70
59847;DHT22;45728;48.788;2.302;2022-07-03T15:29:55;26.00;81.60
59847;DHT22;45728;48.788;2.302;2022-07-03T15:32:22;26.10;79.90
59847;DHT22;45728;48.788;2.302;2022-07-03T15:34:48;25.70;80.90
59847;DHT22;45728;48.788;2.302;2022-07-03T15:40:02;25.30;80.40
59847;DHT22;45728;48.788;2.302;2022-07-03T15:51:12;25.00;82.20
59847;DHT22;45728;48.788;2.302;2022-07-03T15:53:40;24.80;82.70
59847;DHT22;45728;48.788;2.302;2022-07-03T15:56:10;25.40;83.00
59847;DHT22;45728;48.788;2.302;2022-07-03T15:58:40;25.80;82.10
59847;DHT22;45728;48.788;2.302;2022-07-03T16:01:09;25.70;81.40
59847;DHT22;45728;48.788;2.302;2022-07-03T16:04:06;25.60;81.40
59847;DHT22;45728;48.788;2.302;2022-07-03T16:06:34;25.40;81.10
59847;DHT22;45728;48.788;2.302;2022-07-03T16:09:04;25.40;80.90
59847;DHT22;45728;48.788;2.302;2022-07-03T16:11:30;24.90;81.40
59847;DHT22;45728;48.788;2.302;2022-07-03T16:13:57;25.00;82.30
59847;DHT22;45728;48.788;2.302;2022-07-03T16:16:28;25.20;81.50
59847;DHT22;45728;48.788;2.302;2022-07-03T16:18:55;25.50;81.50
59847;DHT22;45728;48.788;2.302;2022-07-03T16:21:21;24.70;80.90
59847;DHT22;45728;48.788;2.302;2022-07-03T16:23:50;24.60;81.40
59847;DHT22;45728;48.788;2.302;2022-07-03T16:26:17;24.40;82.00
59847;DHT22;45728;48.788;2.302;2022-07-03T16:28:43;24.60;81.90
59847;DHT22;45728;48.788;2.302;2022-07-03T16:31:11;24.70;81.20
59847;DHT22;45728;48.788;2.302;2022-07-03T16:33:41;24.60;81.40
59847;DHT22;45728;48.788;2.302;2022-07-03T16:36:12;24.60;81.00
59847;DHT22;45728;48.788;2.302;2022-07-03T16:41:17;24.40;81.70
59847;DHT22;45728;48.788;2.302;2022-07-03T16:43:44;24.50;81.70
59847;DHT22;45728;48.788;2.302;2022-07-03T16:46:11;24.70;81.90
59847;DHT22;45728;48.788;2.302;2022-07-03T16:48:47;24.70;81.40
59847;DHT22;45728;48.788;2.302;2022-07-03T16:51:17;24.80;81.40
59847;DHT22;45728;48.788;2.302;2022-07-03T16:53:43;24.70;81.80
59847;DHT22;45728;48.788;2.302;2022-07-03T16:56:13;24.50;82.40
59847;DHT22;45728;48.788;2.302;2022-07-03T16:58:39;24.10;82.30
59847;DHT22;45728;48.788;2.302;2022-07-03T17:01:07;24.00;83.00
59847;DHT22;45728;48.788;2.302;2022-07-03T17:03:33;24.10;82.90
59847;DHT22;45728;48.788;2.302;2022-07-03T17:06:02;23.90;82.90
59847;DHT22;45728;48.788;2.302;2022-07-03T17:08:29;23.80;83.50
59847;DHT22;45728;48.788;2.302;2022-07-03T17:10:57;23.80;83.50
59847;DHT22;45728;48.788;2.302;2022-07-03T17:13:24;23.80;83.60
59847;DHT22;45728;48.788;2.302;2022-07-03T17:15:51;23.80;83.50
59847;DHT22;45728;48.788;2.302;2022-07-03T17:18:17;23.70;84.00
59847;DHT22;45728;48.788;2.302;2022-07-03T17:20:47;23.80;83.70
59847;DHT22;45728;48.788;2.302;2022-07-03T17:23:20;24.00;83.90
59847;DHT22;45728;48.788;2.302;2022-07-03T17:25:58;23.70;84.00
59847;DHT22;45728;48.788;2.302;2022-07-03T17:28:25;23.60;84.30
59847;DHT22;45728;48.788;2.302;2022-07-03T17:30:58;23.70;84.90
59847;DHT22;45728;48.788;2.302;2022-07-03T17:33:26;23.50;84.40